createdAt,value
2022-11-18T00:02:18.715Z,98423.25
2022-11-18T00:04:46.494Z,98423.25
2022-11-18T00:07:14.237Z,98422.94
2022-11-18T00:09:41.906Z,98418.28
2022-11-18T00:12:27.114Z,98414.72
2022-11-18T00:14:56.175Z,98410.50
2022-11-18T00:17:23.915Z,98421.78
2022-11-18T00:19:51.583Z,98421.59
2022-11-18T00:22:19.532Z,98421.59
2022-11-18T00:24:47.218Z,98425.84
2022-11-18T00:27:15.257Z,98420.13
2022-11-18T00:29:43.019Z,98415.69
2022-11-18T00:32:12.027Z,98417.44
2022-11-18T00:34:42.516Z,98419.28
2022-11-18T00:37:10.154Z,98419.28
2022-11-18T00:39:38.529Z,98412.34
2022-11-18T00:42:23.907Z,98414.31
2022-11-18T00:44:51.590Z,98408.31
2022-11-18T00:47:20.638Z,98420.56
2022-11-18T00:49:48.534Z,98412.03
2022-11-18T00:52:16.449Z,98411.81
2022-11-18T00:54:44.148Z,98405.38
2022-11-18T00:57:11.801Z,98415.75
2022-11-18T00:59:39.674Z,98408.91
2022-11-18T01:02:07.576Z,98417.63
2022-11-18T01:04:36.751Z,98416.88
2022-11-18T01:07:04.622Z,98411.81
2022-11-18T01:09:32.284Z,98422.91
2022-11-18T01:12:17.755Z,98429.84
2022-11-18T01:14:46.158Z,98439.38
2022-11-18T01:17:13.997Z,98444.56
2022-11-18T01:19:43.161Z,98444.19
2022-11-18T01:22:10.889Z,98444.91
2022-11-18T01:24:38.900Z,98441.47
2022-11-18T01:27:06.692Z,98446.03
2022-11-18T01:29:34.714Z,98458.28
2022-11-18T01:32:23.347Z,98464.19
2022-11-18T01:34:51.392Z,98467.59
2022-11-18T01:37:19.115Z,98463.25
2022-11-18T01:39:46.715Z,98457.16
2022-11-18T01:42:16.075Z,98468.53
2022-11-18T01:45:05.069Z,98466.78
2022-11-18T01:47:36.390Z,98469.56
2022-11-18T01:50:06.731Z,98465.44
2022-11-18T01:52:35.698Z,98470.06
2022-11-18T01:55:08.721Z,98472.75
2022-11-18T01:57:36.499Z,98471.13
2022-11-18T02:00:07.267Z,98473.78
2022-11-18T02:02:37.909Z,98481.56
2022-11-18T02:05:10.505Z,98475.25
2022-11-18T02:07:40.362Z,98475.16
2022-11-18T02:10:09.641Z,98474.84
2022-11-18T02:12:38.594Z,98483.75
2022-11-18T02:15:07.289Z,98485.59
2022-11-18T02:17:48.309Z,98487.53
2022-11-18T02:20:40.569Z,98487.47
2022-11-18T02:23:55.618Z,98489.00
2022-11-18T02:27:02.207Z,98484.75
2022-11-18T02:29:36.895Z,98487.25
2022-11-18T02:32:11.149Z,98491.41
2022-11-18T02:34:42.118Z,98494.00
2022-11-18T02:37:17.946Z,98491.50
2022-11-18T02:39:50.938Z,98491.69
2022-11-18T02:42:19.279Z,98488.94
2022-11-18T02:44:53.707Z,98495.66
2022-11-18T02:47:23.299Z,98491.19
2022-11-18T02:49:56.034Z,98496.56
2022-11-18T02:52:26.295Z,98501.41
2022-11-18T02:54:57.154Z,98498.44
2022-11-18T02:57:27.370Z,98497.22
2022-11-18T02:59:56.342Z,98503.53
2022-11-18T03:02:24.568Z,98498.44
2022-11-18T03:04:56.319Z,98500.94
2022-11-18T03:07:31.146Z,98507.06
2022-11-18T03:10:01.624Z,98511.91
2022-11-18T03:12:39.575Z,98516.97
2022-11-18T03:15:17.610Z,98522.50
2022-11-18T03:17:52.975Z,98525.00
2022-11-18T03:20:26.011Z,98519.06
2022-11-18T03:22:57.392Z,98530.19
2022-11-18T03:25:35.489Z,98530.06
2022-11-18T03:28:12.322Z,98535.25
2022-11-18T03:30:47.451Z,98542.59
2022-11-18T03:33:20.261Z,98547.06
2022-11-18T03:35:50.655Z,98544.56
2022-11-18T03:38:22.998Z,98551.13
2022-11-18T03:40:57.208Z,98551.34
2022-11-18T03:43:28.570Z,98554.16
2022-11-18T03:46:03.689Z,98558.13
2022-11-18T03:48:35.119Z,98559.97
2022-11-18T03:51:07.604Z,98561.84
2022-11-18T03:53:39.356Z,98561.84
2022-11-18T03:56:16.975Z,98564.09
2022-11-18T03:58:50.588Z,98566.75
2022-11-18T04:01:25.883Z,98565.84
2022-11-18T04:03:54.579Z,98568.94
2022-11-18T04:06:31.239Z,98572.50
2022-11-18T04:09:03.561Z,98572.78
2022-11-18T04:11:52.992Z,98576.72
2022-11-18T04:14:21.379Z,98579.31
2022-11-18T04:16:53.996Z,98578.59
2022-11-18T04:19:22.556Z,98579.28
2022-11-18T04:21:51.146Z,98577.06
2022-11-18T04:24:18.787Z,98582.16
2022-11-18T04:26:46.422Z,98584.75
2022-11-18T04:29:14.033Z,98578.81
2022-11-18T04:31:41.714Z,98591.22
2022-11-18T04:34:10.824Z,98596.31
2022-11-18T04:36:38.614Z,98595.47
2022-11-18T04:39:06.331Z,98598.97
2022-11-18T04:41:51.720Z,98595.19
2022-11-18T04:44:19.390Z,98593.53
2022-11-18T04:46:47.200Z,98601.41
2022-11-18T04:49:16.949Z,98596.88
2022-11-18T04:51:45.867Z,98597.78
2022-11-18T04:54:14.616Z,98603.53
2022-11-18T04:56:48.790Z,98604.88
2022-11-18T04:59:20.193Z,98603.13
2022-11-18T05:01:48.997Z,98611.00
2022-11-18T05:04:20.494Z,98610.25
2022-11-18T05:06:48.559Z,98620.06
2022-11-18T05:09:16.948Z,98621.75
2022-11-18T05:12:02.986Z,98620.44
2022-11-18T05:14:31.545Z,98618.78
2022-11-18T05:17:01.655Z,98624.31
2022-11-18T05:19:30.971Z,98620.50
2022-11-18T05:21:58.898Z,98620.78
2022-11-18T05:24:27.227Z,98622.25
2022-11-18T05:26:55.775Z,98628.09
2022-11-18T05:29:24.068Z,98636.25
2022-11-18T05:31:52.149Z,98644.03
2022-11-18T05:34:20.682Z,98644.03
2022-11-18T05:36:49.848Z,98649.59
2022-11-18T05:39:18.057Z,98648.66
2022-11-18T05:42:03.367Z,98651.25
2022-11-18T05:44:31.066Z,98656.06
2022-11-18T05:46:58.702Z,98651.88
2022-11-18T05:49:26.712Z,98659.03
2022-11-18T05:51:55.773Z,98661.72
2022-11-18T05:54:24.260Z,98664.13
2022-11-18T05:56:52.436Z,98669.13
2022-11-18T05:59:20.873Z,98670.25
2022-11-18T06:01:53.294Z,98666.34
2022-11-18T06:04:26.289Z,98675.72
2022-11-18T06:06:59.991Z,98687.63
2022-11-18T06:09:32.154Z,98692.25
2022-11-18T06:12:03.129Z,98703.19
2022-11-18T06:14:38.152Z,98711.41
2022-11-18T06:17:12.172Z,98720.50
2022-11-18T06:19:40.244Z,98723.25
2022-11-18T06:22:10.217Z,98726.59
2022-11-18T06:24:38.872Z,98734.47
2022-11-18T06:27:06.775Z,98733.69
2022-11-18T06:29:34.553Z,98745.06
2022-11-18T06:32:02.225Z,98745.13
2022-11-18T06:34:29.862Z,98745.31
2022-11-18T06:36:57.473Z,98749.84
2022-11-18T06:39:27.026Z,98757.91
2022-11-18T06:41:55.032Z,98762.69
2022-11-18T06:44:21.754Z,98762.88
2022-11-18T06:46:58.643Z,98766.13
2022-11-18T06:49:28.032Z,98775.50
2022-11-18T06:51:56.047Z,98777.59
2022-11-18T06:54:23.869Z,98783.59
2022-11-18T06:56:52.918Z,98784.69
2022-11-18T06:59:23.853Z,98795.44
2022-11-18T07:01:53.147Z,98798.69
2022-11-18T07:04:21.664Z,98799.31
2022-11-18T07:06:49.514Z,98805.78
2022-11-18T07:09:17.750Z,98808.25
2022-11-18T07:11:46.094Z,98823.53
2022-11-18T07:14:15.356Z,98825.66
2022-11-18T07:16:43.126Z,98828.91
2022-11-18T07:19:12.671Z,98832.47
2022-11-18T07:21:41.698Z,98840.19
2022-11-18T07:24:12.548Z,98839.34
2022-11-18T07:26:40.547Z,98847.88
2022-11-18T07:29:08.610Z,98845.94
2022-11-18T07:31:39.628Z,98851.38
2022-11-18T07:34:07.896Z,98851.84
2022-11-18T07:36:36.301Z,98857.78
2022-11-18T07:39:06.103Z,98857.69
2022-11-18T07:41:34.555Z,98867.06
2022-11-18T07:44:04.640Z,98865.38
2022-11-18T07:46:33.846Z,98868.63
2022-11-18T07:49:04.632Z,98872.25
2022-11-18T07:51:35.158Z,98874.00
2022-11-18T07:54:06.430Z,98879.75
2022-11-18T07:56:34.134Z,98885.63
2022-11-18T07:59:01.783Z,98886.47
2022-11-18T08:01:30.854Z,98896.81
2022-11-18T08:03:58.852Z,98902.22
2022-11-18T08:06:28.097Z,98899.47
2022-11-18T08:08:55.707Z,98903.66
2022-11-18T08:11:23.447Z,98909.34
2022-11-18T08:13:53.318Z,98912.25
2022-11-18T08:16:23.991Z,98913.94
2022-11-18T08:18:52.605Z,98919.19
2022-11-18T08:21:22.698Z,98923.28
2022-11-18T08:23:52.475Z,98915.38
2022-11-18T08:26:20.183Z,98926.63
2022-11-18T08:28:48.168Z,98927.47
2022-11-18T08:31:17.948Z,98926.13
2022-11-18T08:33:46.271Z,98926.84
2022-11-18T08:36:16.940Z,98928.19
2022-11-18T08:38:45.076Z,98925.69
2022-11-18T08:41:15.426Z,98927.34
2022-11-18T08:43:43.585Z,98930.88
2022-11-18T08:46:11.494Z,98936.53
2022-11-18T08:48:39.338Z,98931.34
2022-11-18T08:51:07.804Z,98935.50
2022-11-18T08:53:35.562Z,98938.09
2022-11-18T08:56:03.315Z,98939.78
2022-11-18T08:58:32.624Z,98947.47
2022-11-18T09:01:06.014Z,98956.63
2022-11-18T09:03:33.803Z,98950.28
2022-11-18T09:06:07.286Z,98956.13
2022-11-18T09:08:34.951Z,98953.19
2022-11-18T09:11:06.464Z,98960.03
2022-11-18T09:16:27.658Z,98952.09
2022-11-18T09:18:57.238Z,98959.88
2022-11-18T09:21:25.797Z,98957.00
2022-11-18T09:23:54.123Z,98957.81
2022-11-18T09:26:23.737Z,98963.84
2022-11-18T09:28:54.421Z,98969.53
2022-11-18T09:31:22.378Z,98972.66
2022-11-18T09:33:50.190Z,98967.66
2022-11-18T09:36:19.757Z,98967.66
2022-11-18T09:38:51.856Z,98972.66
2022-11-18T09:41:41.327Z,98973.25
2022-11-18T09:44:20.110Z,98982.53
2022-11-18T09:47:00.271Z,98981.69
2022-11-18T09:49:31.943Z,98991.31
2022-11-18T09:52:04.040Z,98998.16
2022-11-18T09:54:34.303Z,98997.75
2022-11-18T09:57:03.021Z,98996.53
2022-11-18T09:59:33.708Z,98998.28
2022-11-18T10:02:23.748Z,99001.91
2022-11-18T10:04:53.093Z,99004.50
2022-11-18T10:07:33.404Z,99015.28
2022-11-18T10:10:12.238Z,99024.84
2022-11-18T10:12:46.940Z,99022.59
2022-11-18T10:15:24.504Z,99026.81
2022-11-18T10:17:59.419Z,99025.19
2022-11-18T10:20:35.684Z,99038.81
2022-11-18T10:23:09.308Z,99034.84
2022-11-18T10:25:37.033Z,99037.38
2022-11-18T10:28:17.674Z,99045.31
2022-11-18T10:30:46.791Z,99046.72
2022-11-18T10:33:29.805Z,99048.28
2022-11-18T10:36:11.925Z,99051.19
2022-11-18T10:38:39.784Z,99061.13
2022-11-18T10:41:12.784Z,99058.31
2022-11-18T10:43:45.594Z,99064.16
2022-11-18T10:46:27.094Z,99068.94
2022-11-18T10:49:16.455Z,99059.00
2022-11-18T10:51:47.462Z,99068.56
2022-11-18T10:54:19.445Z,99069.13
2022-11-18T10:56:58.092Z,99072.38
2022-11-18T10:59:32.542Z,99074.16
2022-11-18T11:02:13.799Z,99086.56
2022-11-18T11:04:42.566Z,99084.81
2022-11-18T11:07:27.142Z,99089.34
2022-11-18T11:10:03.234Z,99087.19
2022-11-18T11:12:33.340Z,99088.59
2022-11-18T11:15:06.182Z,99092.41
2022-11-18T11:17:39.864Z,99091.41
2022-11-18T11:20:18.907Z,99084.25
2022-11-18T11:22:46.976Z,99083.19
2022-11-18T11:25:24.957Z,99085.59
2022-11-18T11:28:15.529Z,99090.53
2022-11-18T11:30:50.538Z,99094.88
2022-11-18T11:33:27.340Z,99096.84
2022-11-18T11:36:07.293Z,99095.31
2022-11-18T11:38:49.170Z,99099.88
2022-11-18T11:41:22.838Z,99101.06
2022-11-18T11:44:13.440Z,99094.00
2022-11-18T11:47:11.114Z,99106.00
2022-11-18T11:49:53.092Z,99099.19
2022-11-18T11:52:31.333Z,99096.06
2022-11-18T11:55:13.599Z,99104.03
2022-11-18T11:57:58.086Z,99106.47
2022-11-18T12:00:26.006Z,99105.13
2022-11-18T12:03:05.292Z,99108.59
2022-11-18T12:05:39.169Z,99110.97
2022-11-18T12:08:12.491Z,99107.41
2022-11-18T12:10:47.252Z,99119.06
2022-11-18T12:13:41.054Z,99138.13
2022-11-18T12:16:22.258Z,99145.50
2022-11-18T12:18:55.042Z,99155.25
2022-11-18T12:21:58.166Z,99152.84
2022-11-18T12:24:31.836Z,99143.25
2022-11-18T12:27:00.718Z,99152.50
2022-11-18T12:29:35.851Z,99141.28
2022-11-18T12:32:04.798Z,99133.03
2022-11-18T12:34:39.995Z,99127.13
2022-11-18T12:37:41.402Z,99117.31
2022-11-18T12:40:10.475Z,99117.97
2022-11-18T12:43:01.703Z,99121.03
2022-11-18T12:45:50.318Z,99119.78
2022-11-18T12:48:39.322Z,99119.97
2022-11-18T12:51:46.212Z,99117.72
2022-11-18T12:54:26.690Z,99114.31
2022-11-18T12:56:55.437Z,99109.31
2022-11-18T12:59:32.218Z,99107.72
2022-11-18T13:02:23.387Z,99112.31
2022-11-18T13:05:08.791Z,99116.97
2022-11-18T13:08:02.101Z,99116.09
2022-11-18T13:10:34.665Z,99130.94
2022-11-18T13:13:03.554Z,99134.59
2022-11-18T13:15:49.519Z,99142.53
2022-11-18T13:18:19.369Z,99145.66
2022-11-18T13:20:56.333Z,99146.59
2022-11-18T13:23:47.633Z,99140.97
2022-11-18T13:26:27.773Z,99153.41
2022-11-18T13:29:17.236Z,99155.88
2022-11-18T13:31:53.328Z,99153.53
2022-11-18T13:34:22.991Z,99156.31
2022-11-18T13:36:52.893Z,99155.41
2022-11-18T13:39:24.115Z,99152.50
2022-11-18T13:42:04.936Z,99157.81
2022-11-18T13:44:34.604Z,99144.06
2022-11-18T13:47:09.485Z,99145.66
2022-11-18T13:49:50.266Z,99139.53
2022-11-18T13:52:23.602Z,99141.19
2022-11-18T13:54:53.144Z,99143.56
2022-11-18T13:57:25.838Z,99144.97
2022-11-18T13:59:55.052Z,99151.16
2022-11-18T14:02:23.406Z,99156.13
2022-11-18T14:04:55.012Z,99160.69
2022-11-18T14:07:28.986Z,99162.72
2022-11-18T14:10:00.381Z,99162.59
2022-11-18T14:12:32.425Z,99167.94
2022-11-18T14:15:20.357Z,99162.88
2022-11-18T14:17:56.246Z,99170.47
2022-11-18T14:20:25.018Z,99172.06
2022-11-18T14:22:55.963Z,99178.94
2022-11-18T14:25:28.270Z,99177.25
2022-11-18T14:27:58.728Z,99186.66
2022-11-18T14:30:32.882Z,99186.09
2022-11-18T14:33:25.252Z,99191.47
2022-11-18T14:35:56.426Z,99187.00
2022-11-18T14:38:40.703Z,99192.38
2022-11-18T14:41:14.596Z,99197.59
2022-11-18T14:43:45.915Z,99193.53
2022-11-18T14:46:17.472Z,99190.91
2022-11-18T14:48:45.946Z,99203.16
2022-11-18T14:51:14.752Z,99202.75
2022-11-18T14:53:42.757Z,99204.41
2022-11-18T14:56:16.451Z,99205.88
2022-11-18T14:58:45.565Z,99204.63
2022-11-18T15:01:13.932Z,99212.25
2022-11-18T15:03:42.112Z,99210.09
2022-11-18T15:06:17.326Z,99213.31
2022-11-18T15:08:47.299Z,99207.53
2022-11-18T15:11:14.995Z,99200.66
2022-11-18T15:13:43.470Z,99207.00
2022-11-18T15:16:16.258Z,99220.25
2022-11-18T15:18:45.615Z,99213.38
2022-11-18T15:21:13.615Z,99219.00
2022-11-18T15:23:41.647Z,99224.44
2022-11-18T15:26:19.010Z,99227.56
2022-11-18T15:28:47.586Z,99231.31
2022-11-18T15:31:17.096Z,99236.25
2022-11-18T15:33:46.403Z,99229.31
2022-11-18T15:36:15.841Z,99236.59
2022-11-18T15:38:44.025Z,99241.22
2022-11-18T15:41:17.435Z,99237.09
2022-11-18T15:43:45.798Z,99241.22
2022-11-18T15:46:13.940Z,99249.47
2022-11-18T15:48:43.455Z,99245.38
2022-11-18T15:51:12.258Z,99246.63
2022-11-18T15:53:40.599Z,99259.50
2022-11-18T15:56:25.668Z,99258.75
2022-11-18T15:58:56.631Z,99249.13
2022-11-18T16:01:25.228Z,99256.34
2022-11-18T16:03:55.174Z,99251.97
2022-11-18T16:06:23.623Z,99256.84
2022-11-18T16:08:57.545Z,99256.91
2022-11-18T16:11:45.060Z,99254.66
2022-11-18T16:14:14.579Z,99256.03
2022-11-18T16:16:44.226Z,99264.00
2022-11-18T16:19:15.850Z,99264.16
2022-11-18T16:21:47.043Z,99267.06
2022-11-18T16:24:17.286Z,99268.25
2022-11-18T16:26:45.822Z,99277.31
2022-11-18T16:29:15.717Z,99275.28
2022-11-18T16:31:44.807Z,99282.16
2022-11-18T16:34:15.810Z,99275.06
2022-11-18T16:36:44.992Z,99287.31
2022-11-18T16:39:14.731Z,99284.88
2022-11-18T16:41:43.186Z,99294.59
2022-11-18T16:44:12.789Z,99295.66
2022-11-18T16:46:42.612Z,99296.97
2022-11-18T16:49:14.824Z,99297.66
2022-11-18T16:51:43.889Z,99301.09
2022-11-18T16:54:17.402Z,99297.56
2022-11-18T16:56:46.010Z,99302.00
2022-11-18T16:59:16.533Z,99302.91
2022-11-18T17:01:44.523Z,99303.81
2022-11-18T17:04:13.653Z,99311.16
2022-11-18T17:06:41.734Z,99305.00
2022-11-18T17:09:14.354Z,99319.09
2022-11-18T17:11:42.341Z,99320.97
2022-11-18T17:14:10.414Z,99321.03
2022-11-18T17:16:38.114Z,99321.94
2022-11-18T17:19:11.685Z,99321.94
2022-11-18T17:21:41.152Z,99322.03
2022-11-18T17:24:09.616Z,99321.41
2022-11-18T17:26:37.478Z,99314.66
2022-11-18T17:29:05.060Z,99325.94
2022-11-18T17:31:32.982Z,99318.22
2022-11-18T17:34:00.555Z,99308.09
2022-11-18T17:36:29.598Z,99315.13
2022-11-18T17:39:00.753Z,99323.63
2022-11-18T17:41:47.500Z,99321.44
2022-11-18T17:44:17.786Z,99327.69
2022-11-18T17:46:47.246Z,99323.56
2022-11-18T17:49:17.777Z,99325.72
2022-11-18T17:51:46.401Z,99325.72
2022-11-18T17:54:15.691Z,99330.22
2022-11-18T17:56:43.816Z,99325.94
2022-11-18T17:59:11.633Z,99330.38
2022-11-18T18:01:39.448Z,99327.13
2022-11-18T18:04:07.162Z,99328.19
2022-11-18T18:06:34.846Z,99332.75
2022-11-18T18:09:02.672Z,99333.00
2022-11-18T18:11:31.822Z,99332.38
2022-11-18T18:14:13.491Z,99337.56
2022-11-18T18:16:44.075Z,99336.94
2022-11-18T18:19:13.936Z,99341.41
2022-11-18T18:21:41.853Z,99337.78
2022-11-18T18:24:10.641Z,99344.41
2022-11-18T18:26:39.889Z,99347.59
2022-11-18T18:29:07.696Z,99347.59
2022-11-18T18:31:36.929Z,99351.88
2022-11-18T18:34:05.170Z,99347.69
2022-11-18T18:36:33.071Z,99355.31
2022-11-18T18:39:02.112Z,99348.66
2022-11-18T18:41:29.989Z,99345.22
2022-11-18T18:43:59.047Z,99346.38
2022-11-18T18:46:31.672Z,99350.50
2022-11-18T18:49:02.723Z,99349.72
2022-11-18T18:51:32.082Z,99350.66
2022-11-18T18:54:00.235Z,99358.19
2022-11-18T18:56:28.425Z,99355.53
2022-11-18T18:58:58.884Z,99354.31
2022-11-18T19:01:27.451Z,99351.50
2022-11-18T19:03:56.578Z,99366.19
2022-11-18T19:06:53.295Z,99358.59
2022-11-18T19:09:14.784Z,99365.50
2022-11-18T19:12:00.229Z,99372.44
2022-11-18T19:14:29.851Z,99369.38
2022-11-18T19:16:57.528Z,99375.56
2022-11-18T19:19:41.109Z,99377.47
2022-11-18T19:22:10.158Z,99374.66
2022-11-18T19:24:54.191Z,99371.28
2022-11-18T19:27:23.200Z,99369.38
2022-11-18T19:29:52.318Z,99366.19
2022-11-18T19:32:20.164Z,99365.94
2022-11-18T19:34:48.292Z,99365.94
2022-11-18T19:37:16.297Z,99364.19
2022-11-18T19:39:44.045Z,99371.13
2022-11-18T19:42:11.945Z,99373.59
2022-11-18T19:44:39.862Z,99375.25
2022-11-18T19:47:09.045Z,99370.78
2022-11-18T19:49:36.844Z,99375.44
2022-11-18T19:52:04.676Z,99366.63
2022-11-18T19:54:32.402Z,99380.13
2022-11-18T19:57:01.042Z,99379.38
2022-11-18T19:59:28.799Z,99382.88
2022-11-18T20:01:56.865Z,99390.19
2022-11-18T20:04:26.460Z,99394.31
2022-11-18T20:06:54.366Z,99395.53
2022-11-18T20:09:22.331Z,99394.13
2022-11-18T20:11:50.150Z,99400.25
2022-11-18T20:14:18.403Z,99396.09
2022-11-18T20:16:46.268Z,99401.06
2022-11-18T20:19:17.104Z,99399.09
2022-11-18T20:21:47.865Z,99397.56
2022-11-18T20:24:17.174Z,99399.44
2022-11-18T20:26:45.620Z,99400.50
2022-11-18T20:29:13.668Z,99398.81
2022-11-18T20:31:42.612Z,99393.78
2022-11-18T20:34:14.273Z,99397.38
2022-11-18T20:36:42.276Z,99401.72
2022-11-18T20:39:17.826Z,99406.13
2022-11-18T20:42:10.451Z,99410.59
2022-11-18T20:44:39.151Z,99407.94
2022-11-18T20:47:06.969Z,99403.69
2022-11-18T20:49:34.723Z,99406.47
2022-11-18T20:52:02.832Z,99418.31
2022-11-18T20:54:31.856Z,99414.81
2022-11-18T20:56:59.608Z,99412.34
2022-11-18T20:59:27.615Z,99434.00
2022-11-18T21:01:55.379Z,99418.47
2022-11-18T21:04:23.500Z,99425.31
2022-11-18T21:06:54.485Z,99428.81
2022-11-18T21:09:22.454Z,99425.59
2022-11-18T21:11:52.201Z,99429.03
2022-11-18T21:14:24.345Z,99418.69
2022-11-18T21:16:53.753Z,99428.94
2022-11-18T21:19:21.747Z,99418.47
2022-11-18T21:21:49.295Z,99419.16
2022-11-18T21:24:18.383Z,99420.00
2022-11-18T21:26:47.397Z,99419.22
2022-11-18T21:29:19.385Z,99426.16
2022-11-18T21:31:48.323Z,99432.09
2022-11-18T21:34:17.387Z,99427.84
2022-11-18T21:36:50.409Z,99430.56
2022-11-18T21:39:22.340Z,99424.56
2022-11-18T21:41:55.315Z,99437.56
2022-11-18T21:44:26.237Z,99442.03
2022-11-18T21:46:54.104Z,99439.47
2022-11-18T21:49:22.795Z,99434.34
2022-11-18T21:51:50.820Z,99431.00
2022-11-18T21:54:19.014Z,99430.09
2022-11-18T21:56:46.743Z,99425.81
2022-11-18T21:59:14.652Z,99430.22
2022-11-18T22:01:43.764Z,99430.16
2022-11-18T22:04:31.683Z,99437.16
2022-11-18T22:06:59.526Z,99440.66
2022-11-18T22:09:31.447Z,99437.97
2022-11-18T22:12:02.501Z,99437.97
2022-11-18T22:14:30.322Z,99423.50
2022-11-18T22:16:59.410Z,99432.19
2022-11-18T22:19:27.090Z,99434.00
2022-11-18T22:21:54.947Z,99430.56
2022-11-18T22:24:23.128Z,99437.50
2022-11-18T22:26:50.841Z,99428.13
2022-11-18T22:29:18.812Z,99423.78
2022-11-18T22:31:46.805Z,99423.84
2022-11-18T22:34:15.980Z,99424.63
2022-11-18T22:36:43.621Z,99421.28
2022-11-18T22:39:11.351Z,99423.09
2022-11-18T22:41:56.593Z,99423.00
2022-11-18T22:44:24.298Z,99424.06
2022-11-18T22:46:54.221Z,99426.91
2022-11-18T22:49:23.608Z,99428.53
2022-11-18T22:51:51.386Z,99428.69
2022-11-18T22:57:06.752Z,99426.91
2022-11-18T22:59:34.457Z,99426.75
2022-11-18T23:02:02.510Z,99421.47
2022-11-18T23:04:31.586Z,99423.25
2022-11-18T23:06:59.213Z,99421.34
2022-11-18T23:09:26.886Z,99428.13
2022-11-18T23:12:12.318Z,99422.81
2022-11-18T23:14:40.102Z,99428.81
2022-11-18T23:17:07.973Z,99438.28
2022-11-18T23:19:41.856Z,99435.53
2022-11-18T23:22:09.505Z,99439.97
2022-11-18T23:24:37.324Z,99446.81
2022-11-18T23:27:05.138Z,99441.06
2022-11-18T23:29:32.837Z,99444.72
2022-11-18T23:32:00.471Z,99440.59
2022-11-18T23:34:28.125Z,99445.75
2022-11-18T23:36:57.338Z,99445.75
2022-11-18T23:39:25.125Z,99445.00
2022-11-18T23:41:52.751Z,99451.00
2022-11-18T23:44:41.021Z,99446.66
2022-11-18T23:47:08.915Z,99443.25
2022-11-18T23:49:37.008Z,99443.25
2022-11-18T23:52:06.325Z,99445.91
2022-11-18T23:54:34.052Z,99444.16
2022-11-18T23:57:04.284Z,99445.75
2022-11-18T23:59:32.283Z,99445.63
